sensor_id;sensor_type;location;lat;lon;timestamp;P1;durP1;ratioP1;P2;durP2;ratioP2
15261;SDS011;7733;51.554;13.590;2023-12-28T00:01:28;1.90;;;1.80;;
15261;SDS011;7733;51.554;13.590;2023-12-28T00:03:54;1.77;;;1.67;;
15261;SDS011;7733;51.554;13.590;2023-12-28T00:06:20;2.17;;;2.03;;
15261;SDS011;7733;51.554;13.590;2023-12-28T00:08:45;1.90;;;1.80;;
15261;SDS011;7733;51.554;13.590;2023-12-28T00:11:11;4.00;;;2.10;;
15261;SDS011;7733;51.554;13.590;2023-12-28T00:13:37;2.17;;;1.90;;
15261;SDS011;7733;51.554;13.590;2023-12-28T00:16:03;2.07;;;1.90;;
15261;SDS011;7733;51.554;13.590;2023-12-28T00:18:29;1.43;;;1.33;;
15261;SDS011;7733;51.554;13.590;2023-12-28T00:20:55;2.20;;;2.00;;
15261;SDS011;7733;51.554;13.590;2023-12-28T00:23:21;2.00;;;1.80;;
15261;SDS011;7733;51.554;13.590;2023-12-28T00:25:46;2.10;;;2.00;;
15261;SDS011;7733;51.554;13.590;2023-12-28T00:28:12;1.93;;;1.77;;
15261;SDS011;7733;51.554;13.590;2023-12-28T00:30:38;1.70;;;1.60;;
15261;SDS011;7733;51.554;13.590;2023-12-28T00:33:03;1.70;;;1.60;;
15261;SDS011;7733;51.554;13.590;2023-12-28T00:35:29;2.90;;;1.80;;
15261;SDS011;7733;51.554;13.590;2023-12-28T00:37:55;2.23;;;1.80;;
15261;SDS011;7733;51.554;13.590;2023-12-28T00:40:21;2.07;;;1.60;;
15261;SDS011;7733;51.554;13.590;2023-12-28T00:42:47;2.10;;;2.00;;
15261;SDS011;7733;51.554;13.590;2023-12-28T00:45:13;1.73;;;1.63;;
15261;SDS011;7733;51.554;13.590;2023-12-28T00:47:39;1.83;;;1.70;;
15261;SDS011;7733;51.554;13.590;2023-12-28T00:50:08;1.80;;;1.70;;
15261;SDS011;7733;51.554;13.590;2023-12-28T00:52:40;2.37;;;2.03;;
15261;SDS011;7733;51.554;13.590;2023-12-28T00:55:06;2.20;;;1.60;;
15261;SDS011;7733;51.554;13.590;2023-12-28T00:57:32;1.90;;;1.80;;
15261;SDS011;7733;51.554;13.590;2023-12-28T00:59:59;1.60;;;1.50;;
15261;SDS011;7733;51.554;13.590;2023-12-28T01:02:25;1.90;;;1.73;;
15261;SDS011;7733;51.554;13.590;2023-12-28T01:04:50;3.57;;;1.70;;
15261;SDS011;7733;51.554;13.590;2023-12-28T01:07:16;1.70;;;1.60;;
15261;SDS011;7733;51.554;13.590;2023-12-28T01:09:42;2.03;;;1.90;;
15261;SDS011;7733;51.554;13.590;2023-12-28T01:12:08;1.67;;;1.53;;
15261;SDS011;7733;51.554;13.590;2023-12-28T01:14:33;2.13;;;1.67;;
15261;SDS011;7733;51.554;13.590;2023-12-28T01:16:59;1.83;;;1.73;;
15261;SDS011;7733;51.554;13.590;2023-12-28T01:19:25;2.40;;;1.87;;
15261;SDS011;7733;51.554;13.590;2023-12-28T01:21:50;1.57;;;1.40;;
15261;SDS011;7733;51.554;13.590;2023-12-28T01:24:16;1.67;;;1.50;;
15261;SDS011;7733;51.554;13.590;2023-12-28T01:26:42;1.30;;;1.30;;
15261;SDS011;7733;51.554;13.590;2023-12-28T01:29:08;1.47;;;1.37;;
15261;SDS011;7733;51.554;13.590;2023-12-28T01:31:35;1.67;;;1.47;;
15261;SDS011;7733;51.554;13.590;2023-12-28T01:34:03;1.37;;;1.27;;
15261;SDS011;7733;51.554;13.590;2023-12-28T01:36:28;1.43;;;1.33;;
15261;SDS011;7733;51.554;13.590;2023-12-28T01:38:55;1.30;;;1.20;;
15261;SDS011;7733;51.554;13.590;2023-12-28T01:41:21;1.70;;;1.50;;
15261;SDS011;7733;51.554;13.590;2023-12-28T01:43:46;1.57;;;1.40;;
15261;SDS011;7733;51.554;13.590;2023-12-28T01:46:13;1.20;;;1.10;;
15261;SDS011;7733;51.554;13.590;2023-12-28T01:48:43;2.40;;;1.20;;
15261;SDS011;7733;51.554;13.590;2023-12-28T01:51:13;1.30;;;1.20;;
15261;SDS011;7733;51.554;13.590;2023-12-28T01:53:40;1.13;;;1.03;;
15261;SDS011;7733;51.554;13.590;2023-12-28T01:56:12;1.03;;;1.03;;
15261;SDS011;7733;51.554;13.590;2023-12-28T01:58:38;1.30;;;1.10;;
15261;SDS011;7733;51.554;13.590;2023-12-28T02:01:08;1.37;;;1.27;;
15261;SDS011;7733;51.554;13.590;2023-12-28T02:03:36;0.77;;;0.77;;
15261;SDS011;7733;51.554;13.590;2023-12-28T02:06:02;1.13;;;1.13;;
15261;SDS011;7733;51.554;13.590;2023-12-28T02:08:29;0.93;;;0.93;;
15261;SDS011;7733;51.554;13.590;2023-12-28T02:10:55;1.00;;;1.00;;
15261;SDS011;7733;51.554;13.590;2023-12-28T02:13:21;0.73;;;0.73;;
15261;SDS011;7733;51.554;13.590;2023-12-28T02:15:47;0.90;;;0.90;;
15261;SDS011;7733;51.554;13.590;2023-12-28T02:18:38;1.17;;;0.80;;
15261;SDS011;7733;51.554;13.590;2023-12-28T02:21:09;0.60;;;0.60;;
15261;SDS011;7733;51.554;13.590;2023-12-28T02:23:39;0.80;;;0.80;;
15261;SDS011;7733;51.554;13.590;2023-12-28T02:26:04;0.60;;;0.60;;
15261;SDS011;7733;51.554;13.590;2023-12-28T02:28:30;1.00;;;0.90;;
15261;SDS011;7733;51.554;13.590;2023-12-28T02:30:56;0.70;;;0.70;;
15261;SDS011;7733;51.554;13.590;2023-12-28T02:33:26;1.33;;;0.97;;
15261;SDS011;7733;51.554;13.590;2023-12-28T02:36:07;0.77;;;0.77;;
15261;SDS011;7733;51.554;13.590;2023-12-28T02:38:36;0.90;;;0.90;;
15261;SDS011;7733;51.554;13.590;2023-12-28T02:41:06;1.07;;;0.97;;
15261;SDS011;7733;51.554;13.590;2023-12-28T02:43:34;0.83;;;0.83;;
15261;SDS011;7733;51.554;13.590;2023-12-28T02:46:00;1.23;;;0.90;;
15261;SDS011;7733;51.554;13.590;2023-12-28T02:48:26;0.70;;;0.70;;
15261;SDS011;7733;51.554;13.590;2023-12-28T02:50:51;0.60;;;0.60;;
15261;SDS011;7733;51.554;13.590;2023-12-28T02:53:17;0.80;;;0.80;;
15261;SDS011;7733;51.554;13.590;2023-12-28T02:55:43;1.00;;;1.00;;
15261;SDS011;7733;51.554;13.590;2023-12-28T02:58:08;0.77;;;0.77;;
15261;SDS011;7733;51.554;13.590;2023-12-28T03:00:34;0.80;;;0.80;;
15261;SDS011;7733;51.554;13.590;2023-12-28T03:03:00;0.80;;;0.80;;
15261;SDS011;7733;51.554;13.590;2023-12-28T03:05:26;4.20;;;3.80;;
15261;SDS011;7733;51.554;13.590;2023-12-28T03:07:51;1.90;;;1.10;;
15261;SDS011;7733;51.554;13.590;2023-12-28T03:10:17;0.90;;;0.90;;
15261;SDS011;7733;51.554;13.590;2023-12-28T03:12:43;0.90;;;0.90;;
15261;SDS011;7733;51.554;13.590;2023-12-28T03:15:09;0.80;;;0.80;;
15261;SDS011;7733;51.554;13.590;2023-12-28T03:17:35;1.17;;;1.17;;
15261;SDS011;7733;51.554;13.590;2023-12-28T03:20:01;1.00;;;1.00;;
15261;SDS011;7733;51.554;13.590;2023-12-28T03:22:28;0.80;;;0.80;;
15261;SDS011;7733;51.554;13.590;2023-12-28T03:24:54;1.10;;;1.10;;
15261;SDS011;7733;51.554;13.590;2023-12-28T03:27:19;1.00;;;1.00;;
15261;SDS011;7733;51.554;13.590;2023-12-28T03:29:45;1.00;;;1.00;;
15261;SDS011;7733;51.554;13.590;2023-12-28T03:32:11;1.20;;;1.20;;
15261;SDS011;7733;51.554;13.590;2023-12-28T03:34:37;1.10;;;0.90;;
15261;SDS011;7733;51.554;13.590;2023-12-28T03:37:02;1.03;;;0.90;;
15261;SDS011;7733;51.554;13.590;2023-12-28T03:39:28;1.03;;;1.03;;
15261;SDS011;7733;51.554;13.590;2023-12-28T03:41:54;0.93;;;0.93;;
15261;SDS011;7733;51.554;13.590;2023-12-28T03:44:20;0.90;;;0.90;;
15261;SDS011;7733;51.554;13.590;2023-12-28T03:46:47;1.30;;;1.20;;
15261;SDS011;7733;51.554;13.590;2023-12-28T03:49:17;1.57;;;0.83;;
15261;SDS011;7733;51.554;13.590;2023-12-28T03:51:47;1.43;;;1.00;;
15261;SDS011;7733;51.554;13.590;2023-12-28T03:54:18;1.00;;;1.00;;
15261;SDS011;7733;51.554;13.590;2023-12-28T03:56:47;1.13;;;1.00;;
15261;SDS011;7733;51.554;13.590;2023-12-28T03:59:13;1.10;;;1.10;;
15261;SDS011;7733;51.554;13.590;2023-12-28T04:01:42;1.20;;;1.20;;
15261;SDS011;7733;51.554;13.590;2023-12-28T04:04:09;1.40;;;1.30;;
15261;SDS011;7733;51.554;13.590;2023-12-28T04:06:35;2.07;;;1.20;;
15261;SDS011;7733;51.554;13.590;2023-12-28T04:09:02;1.03;;;1.03;;
15261;SDS011;7733;51.554;13.590;2023-12-28T04:11:28;1.43;;;1.33;;
15261;SDS011;7733;51.554;13.590;2023-12-28T04:13:53;1.23;;;1.10;;
15261;SDS011;7733;51.554;13.590;2023-12-28T04:16:20;1.27;;;1.17;;
15261;SDS011;7733;51.554;13.590;2023-12-28T04:18:45;1.20;;;1.10;;
15261;SDS011;7733;51.554;13.590;2023-12-28T04:21:11;1.73;;;1.13;;
15261;SDS011;7733;51.554;13.590;2023-12-28T04:23:38;1.90;;;1.80;;
15261;SDS011;7733;51.554;13.590;2023-12-28T04:26:07;1.37;;;1.27;;
15261;SDS011;7733;51.554;13.590;2023-12-28T04:28:33;1.80;;;1.43;;
15261;SDS011;7733;51.554;13.590;2023-12-28T04:31:03;1.70;;;1.60;;
15261;SDS011;7733;51.554;13.590;2023-12-28T04:33:31;1.30;;;1.30;;
15261;SDS011;7733;51.554;13.590;2023-12-28T04:35:57;1.43;;;1.43;;
15261;SDS011;7733;51.554;13.590;2023-12-28T04:38:30;1.00;;;1.00;;
15261;SDS011;7733;51.554;13.590;2023-12-28T04:40:57;1.00;;;1.00;;
15261;SDS011;7733;51.554;13.590;2023-12-28T04:43:23;1.10;;;1.10;;
15261;SDS011;7733;51.554;13.590;2023-12-28T04:45:49;1.70;;;1.33;;
15261;SDS011;7733;51.554;13.590;2023-12-28T04:48:16;1.07;;;1.07;;
15261;SDS011;7733;51.554;13.590;2023-12-28T04:50:45;1.00;;;1.00;;
15261;SDS011;7733;51.554;13.590;2023-12-28T04:53:15;1.10;;;1.10;;
15261;SDS011;7733;51.554;13.590;2023-12-28T04:55:41;1.23;;;1.13;;
15261;SDS011;7733;51.554;13.590;2023-12-28T04:58:07;1.17;;;1.17;;
15261;SDS011;7733;51.554;13.590;2023-12-28T05:00:33;1.80;;;1.27;;
15261;SDS011;7733;51.554;13.590;2023-12-28T05:02:59;1.37;;;1.00;;
15261;SDS011;7733;51.554;13.590;2023-12-28T05:05:25;1.20;;;1.20;;
15261;SDS011;7733;51.554;13.590;2023-12-28T05:07:50;2.50;;;1.43;;
15261;SDS011;7733;51.554;13.590;2023-12-28T05:10:16;1.20;;;1.20;;
15261;SDS011;7733;51.554;13.590;2023-12-28T05:12:42;1.03;;;0.93;;
15261;SDS011;7733;51.554;13.590;2023-12-28T05:15:08;0.90;;;0.90;;
15261;SDS011;7733;51.554;13.590;2023-12-28T05:17:34;1.40;;;1.30;;
15261;SDS011;7733;51.554;13.590;2023-12-28T05:20:00;1.20;;;1.20;;
15261;SDS011;7733;51.554;13.590;2023-12-28T05:22:25;1.60;;;1.03;;
15261;SDS011;7733;51.554;13.590;2023-12-28T05:24:51;1.33;;;1.33;;
15261;SDS011;7733;51.554;13.590;2023-12-28T05:27:17;1.60;;;1.50;;
15261;SDS011;7733;51.554;13.590;2023-12-28T05:29:43;1.50;;;1.40;;
15261;SDS011;7733;51.554;13.590;2023-12-28T05:32:08;1.40;;;1.30;;
15261;SDS011;7733;51.554;13.590;2023-12-28T05:34:36;1.20;;;1.10;;
15261;SDS011;7733;51.554;13.590;2023-12-28T05:37:02;1.10;;;1.10;;
15261;SDS011;7733;51.554;13.590;2023-12-28T05:39:28;1.30;;;1.27;;
15261;SDS011;7733;51.554;13.590;2023-12-28T05:41:53;1.40;;;1.27;;
15261;SDS011;7733;51.554;13.590;2023-12-28T05:44:19;1.30;;;1.20;;
15261;SDS011;7733;51.554;13.590;2023-12-28T05:46:45;1.30;;;1.30;;
15261;SDS011;7733;51.554;13.590;2023-12-28T05:49:11;1.37;;;1.20;;
15261;SDS011;7733;51.554;13.590;2023-12-28T05:51:40;1.20;;;1.13;;
15261;SDS011;7733;51.554;13.590;2023-12-28T05:54:07;1.40;;;1.30;;
15261;SDS011;7733;51.554;13.590;2023-12-28T05:56:33;1.33;;;1.33;;
15261;SDS011;7733;51.554;13.590;2023-12-28T05:58:59;1.33;;;1.30;;
15261;SDS011;7733;51.554;13.590;2023-12-28T06:01:26;1.33;;;1.33;;
15261;SDS011;7733;51.554;13.590;2023-12-28T06:03:52;1.17;;;1.17;;
15261;SDS011;7733;51.554;13.590;2023-12-28T06:06:18;1.47;;;1.40;;
15261;SDS011;7733;51.554;13.590;2023-12-28T06:08:45;1.30;;;1.30;;
15261;SDS011;7733;51.554;13.590;2023-12-28T06:11:11;1.50;;;1.40;;
15261;SDS011;7733;51.554;13.590;2023-12-28T06:13:37;1.50;;;1.40;;
15261;SDS011;7733;51.554;13.590;2023-12-28T06:16:03;1.67;;;1.57;;
15261;SDS011;7733;51.554;13.590;2023-12-28T06:18:29;0.93;;;0.93;;
15261;SDS011;7733;51.554;13.590;2023-12-28T06:20:55;1.30;;;1.30;;
15261;SDS011;7733;51.554;13.590;2023-12-28T06:23:21;1.70;;;1.37;;
15261;SDS011;7733;51.554;13.590;2023-12-28T06:25:46;1.77;;;1.57;;
15261;SDS011;7733;51.554;13.590;2023-12-28T06:28:12;1.63;;;1.60;;
15261;SDS011;7733;51.554;13.590;2023-12-28T06:30:38;1.47;;;1.43;;
15261;SDS011;7733;51.554;13.590;2023-12-28T06:33:04;1.50;;;1.50;;
15261;SDS011;7733;51.554;13.590;2023-12-28T06:35:30;1.43;;;1.33;;
15261;SDS011;7733;51.554;13.590;2023-12-28T06:37:56;1.57;;;1.47;;
15261;SDS011;7733;51.554;13.590;2023-12-28T06:40:22;1.10;;;1.10;;
15261;SDS011;7733;51.554;13.590;2023-12-28T06:42:47;1.67;;;1.50;;
15261;SDS011;7733;51.554;13.590;2023-12-28T06:45:13;2.03;;;1.47;;
15261;SDS011;7733;51.554;13.590;2023-12-28T06:47:39;1.30;;;1.30;;
15261;SDS011;7733;51.554;13.590;2023-12-28T06:50:05;1.60;;;1.50;;
15261;SDS011;7733;51.554;13.590;2023-12-28T06:52:32;2.00;;;1.60;;
15261;SDS011;7733;51.554;13.590;2023-12-28T06:54:58;1.60;;;1.50;;
15261;SDS011;7733;51.554;13.590;2023-12-28T06:57:24;1.30;;;1.30;;
15261;SDS011;7733;51.554;13.590;2023-12-28T06:59:49;1.57;;;1.40;;
15261;SDS011;7733;51.554;13.590;2023-12-28T07:02:15;1.90;;;1.70;;
15261;SDS011;7733;51.554;13.590;2023-12-28T07:04:41;2.13;;;1.63;;
15261;SDS011;7733;51.554;13.590;2023-12-28T07:07:07;1.93;;;1.77;;
15261;SDS011;7733;51.554;13.590;2023-12-28T07:09:32;1.43;;;1.43;;
15261;SDS011;7733;51.554;13.590;2023-12-28T07:11:58;2.20;;;1.60;;
15261;SDS011;7733;51.554;13.590;2023-12-28T07:14:24;1.83;;;1.73;;
15261;SDS011;7733;51.554;13.590;2023-12-28T07:16:50;2.00;;;1.57;;
15261;SDS011;7733;51.554;13.590;2023-12-28T07:19:16;1.97;;;1.87;;
15261;SDS011;7733;51.554;13.590;2023-12-28T07:21:41;1.77;;;1.67;;
15261;SDS011;7733;51.554;13.590;2023-12-28T07:24:07;1.97;;;1.87;;
15261;SDS011;7733;51.554;13.590;2023-12-28T07:26:33;1.70;;;1.70;;
15261;SDS011;7733;51.554;13.590;2023-12-28T07:28:58;2.00;;;1.40;;
15261;SDS011;7733;51.554;13.590;2023-12-28T07:31:27;1.87;;;1.73;;
15261;SDS011;7733;51.554;13.590;2023-12-28T07:33:53;1.43;;;1.40;;
15261;SDS011;7733;51.554;13.590;2023-12-28T07:36:20;1.90;;;1.80;;
15261;SDS011;7733;51.554;13.590;2023-12-28T07:38:46;1.97;;;1.40;;
15261;SDS011;7733;51.554;13.590;2023-12-28T07:41:12;1.70;;;1.70;;
15261;SDS011;7733;51.554;13.590;2023-12-28T07:43:37;1.80;;;1.70;;
15261;SDS011;7733;51.554;13.590;2023-12-28T07:46:04;1.50;;;1.40;;
15261;SDS011;7733;51.554;13.590;2023-12-28T07:48:30;1.60;;;1.50;;
15261;SDS011;7733;51.554;13.590;2023-12-28T07:50:58;1.87;;;1.50;;
15261;SDS011;7733;51.554;13.590;2023-12-28T07:53:29;3.83;;;1.63;;
15261;SDS011;7733;51.554;13.590;2023-12-28T07:55:55;1.70;;;1.60;;
15261;SDS011;7733;51.554;13.590;2023-12-28T07:58:21;1.70;;;1.60;;
15261;SDS011;7733;51.554;13.590;2023-12-28T08:00:47;1.53;;;1.50;;
15261;SDS011;7733;51.554;13.590;2023-12-28T08:03:14;1.77;;;1.67;;
15261;SDS011;7733;51.554;13.590;2023-12-28T08:05:42;1.70;;;1.60;;
15261;SDS011;7733;51.554;13.590;2023-12-28T08:08:08;2.00;;;1.80;;
15261;SDS011;7733;51.554;13.590;2023-12-28T08:10:34;1.80;;;1.70;;
15261;SDS011;7733;51.554;13.590;2023-12-28T08:13:00;2.03;;;1.93;;
15261;SDS011;7733;51.554;13.590;2023-12-28T08:15:25;1.77;;;1.67;;
15261;SDS011;7733;51.554;13.590;2023-12-28T08:17:51;2.00;;;1.73;;
15261;SDS011;7733;51.554;13.590;2023-12-28T08:20:17;1.80;;;1.70;;
15261;SDS011;7733;51.554;13.590;2023-12-28T08:22:42;1.70;;;1.60;;
15261;SDS011;7733;51.554;13.590;2023-12-28T08:25:08;1.70;;;1.60;;
15261;SDS011;7733;51.554;13.590;2023-12-28T08:27:35;2.37;;;1.67;;
15261;SDS011;7733;51.554;13.590;2023-12-28T08:30:01;2.30;;;2.10;;
15261;SDS011;7733;51.554;13.590;2023-12-28T08:32:27;2.13;;;1.93;;
15261;SDS011;7733;51.554;13.590;2023-12-28T08:34:53;1.97;;;1.80;;
15261;SDS011;7733;51.554;13.590;2023-12-28T08:37:19;2.00;;;1.90;;
15261;SDS011;7733;51.554;13.590;2023-12-28T08:39:45;2.73;;;1.70;;
15261;SDS011;7733;51.554;13.590;2023-12-28T08:42:10;2.00;;;1.80;;
15261;SDS011;7733;51.554;13.590;2023-12-28T08:44:36;1.70;;;1.60;;
15261;SDS011;7733;51.554;13.590;2023-12-28T08:47:02;2.50;;;1.83;;
15261;SDS011;7733;51.554;13.590;2023-12-28T08:49:28;2.10;;;1.90;;
15261;SDS011;7733;51.554;13.590;2023-12-28T08:51:54;1.40;;;1.40;;
15261;SDS011;7733;51.554;13.590;2023-12-28T08:54:20;1.90;;;1.80;;
15261;SDS011;7733;51.554;13.590;2023-12-28T08:56:46;1.67;;;1.57;;
15261;SDS011;7733;51.554;13.590;2023-12-28T08:59:13;1.80;;;1.70;;
15261;SDS011;7733;51.554;13.590;2023-12-28T09:01:39;1.90;;;1.80;;
15261;SDS011;7733;51.554;13.590;2023-12-28T09:04:04;1.60;;;1.50;;
15261;SDS011;7733;51.554;13.590;2023-12-28T09:06:30;1.70;;;1.60;;
15261;SDS011;7733;51.554;13.590;2023-12-28T09:08:56;1.90;;;1.80;;
15261;SDS011;7733;51.554;13.590;2023-12-28T09:11:22;1.80;;;1.70;;
15261;SDS011;7733;51.554;13.590;2023-12-28T09:13:48;2.00;;;1.90;;
15261;SDS011;7733;51.554;13.590;2023-12-28T09:16:15;1.90;;;1.80;;
15261;SDS011;7733;51.554;13.590;2023-12-28T09:18:41;1.70;;;1.60;;
15261;SDS011;7733;51.554;13.590;2023-12-28T09:21:08;1.97;;;1.87;;
15261;SDS011;7733;51.554;13.590;2023-12-28T09:23:35;2.37;;;1.80;;
15261;SDS011;7733;51.554;13.590;2023-12-28T09:26:02;2.30;;;2.10;;
15261;SDS011;7733;51.554;13.590;2023-12-28T09:28:29;1.83;;;1.77;;
15261;SDS011;7733;51.554;13.590;2023-12-28T09:30:55;1.60;;;1.60;;
15261;SDS011;7733;51.554;13.590;2023-12-28T09:33:21;1.80;;;1.70;;
15261;SDS011;7733;51.554;13.590;2023-12-28T09:35:47;1.80;;;1.70;;
15261;SDS011;7733;51.554;13.590;2023-12-28T09:38:14;1.63;;;1.63;;
15261;SDS011;7733;51.554;13.590;2023-12-28T09:40:43;1.93;;;1.83;;
15261;SDS011;7733;51.554;13.590;2023-12-28T09:43:13;2.00;;;1.90;;
15261;SDS011;7733;51.554;13.590;2023-12-28T09:46:06;1.73;;;1.63;;
15261;SDS011;7733;51.554;13.590;2023-12-28T09:48:32;1.90;;;1.80;;
15261;SDS011;7733;51.554;13.590;2023-12-28T09:50:59;1.60;;;1.50;;
15261;SDS011;7733;51.554;13.590;2023-12-28T09:53:25;1.67;;;1.67;;
15261;SDS011;7733;51.554;13.590;2023-12-28T09:55:51;2.10;;;2.00;;
15261;SDS011;7733;51.554;13.590;2023-12-28T09:58:18;1.73;;;1.63;;
15261;SDS011;7733;51.554;13.590;2023-12-28T10:00:45;1.77;;;1.63;;
15261;SDS011;7733;51.554;13.590;2023-12-28T10:03:13;2.07;;;1.67;;
15261;SDS011;7733;51.554;13.590;2023-12-28T10:05:40;1.60;;;1.50;;
15261;SDS011;7733;51.554;13.590;2023-12-28T10:08:07;1.87;;;1.77;;
15261;SDS011;7733;51.554;13.590;2023-12-28T10:10:33;1.80;;;1.70;;
15261;SDS011;7733;51.554;13.590;2023-12-28T10:13:00;1.53;;;1.53;;
15261;SDS011;7733;51.554;13.590;2023-12-28T10:15:27;1.87;;;1.80;;
15261;SDS011;7733;51.554;13.590;2023-12-28T10:17:52;2.00;;;1.90;;
15261;SDS011;7733;51.554;13.590;2023-12-28T10:20:18;1.93;;;1.83;;
15261;SDS011;7733;51.554;13.590;2023-12-28T10:22:44;2.27;;;1.73;;
15261;SDS011;7733;51.554;13.590;2023-12-28T10:25:10;1.60;;;1.60;;
15261;SDS011;7733;51.554;13.590;2023-12-28T10:27:40;1.77;;;1.70;;
15261;SDS011;7733;51.554;13.590;2023-12-28T10:30:09;2.20;;;2.00;;
15261;SDS011;7733;51.554;13.590;2023-12-28T10:32:39;1.60;;;1.60;;
15261;SDS011;7733;51.554;13.590;2023-12-28T10:35:05;1.73;;;1.63;;
15261;SDS011;7733;51.554;13.590;2023-12-28T10:37:31;1.60;;;1.50;;
15261;SDS011;7733;51.554;13.590;2023-12-28T10:39:59;1.90;;;1.80;;
15261;SDS011;7733;51.554;13.590;2023-12-28T10:42:31;1.73;;;1.60;;
15261;SDS011;7733;51.554;13.590;2023-12-28T10:45:03;1.67;;;1.57;;
15261;SDS011;7733;51.554;13.590;2023-12-28T10:47:33;1.50;;;1.50;;
15261;SDS011;7733;51.554;13.590;2023-12-28T10:50:07;1.97;;;1.87;;
15261;SDS011;7733;51.554;13.590;2023-12-28T10:52:36;1.67;;;1.67;;
15261;SDS011;7733;51.554;13.590;2023-12-28T10:55:21;1.97;;;1.87;;
15261;SDS011;7733;51.554;13.590;2023-12-28T10:58:10;1.50;;;1.50;;
15261;SDS011;7733;51.554;13.590;2023-12-28T11:00:47;2.00;;;1.80;;
15261;SDS011;7733;51.554;13.590;2023-12-28T11:03:24;1.63;;;1.53;;
15261;SDS011;7733;51.554;13.590;2023-12-28T11:06:00;1.70;;;1.60;;
15261;SDS011;7733;51.554;13.590;2023-12-28T11:08:30;1.80;;;1.70;;
15261;SDS011;7733;51.554;13.590;2023-12-28T11:11:00;1.77;;;1.67;;
15261;SDS011;7733;51.554;13.590;2023-12-28T11:13:30;1.80;;;1.70;;
15261;SDS011;7733;51.554;13.590;2023-12-28T11:15:58;1.70;;;1.67;;
15261;SDS011;7733;51.554;13.590;2023-12-28T11:18:25;1.70;;;1.60;;
15261;SDS011;7733;51.554;13.590;2023-12-28T11:20:53;1.80;;;1.70;;
15261;SDS011;7733;51.554;13.590;2023-12-28T11:23:20;1.70;;;1.60;;
15261;SDS011;7733;51.554;13.590;2023-12-28T11:25:46;1.90;;;1.80;;
15261;SDS011;7733;51.554;13.590;2023-12-28T11:28:12;1.63;;;1.57;;
15261;SDS011;7733;51.554;13.590;2023-12-28T11:30:41;2.13;;;2.03;;
15261;SDS011;7733;51.554;13.590;2023-12-28T11:33:08;2.57;;;2.47;;
15261;SDS011;7733;51.554;13.590;2023-12-28T11:35:35;2.10;;;2.00;;
15261;SDS011;7733;51.554;13.590;2023-12-28T11:38:05;1.80;;;1.70;;
15261;SDS011;7733;51.554;13.590;2023-12-28T11:41:07;1.87;;;1.73;;
15261;SDS011;7733;51.554;13.590;2023-12-28T11:43:28;1.80;;;1.70;;
15261;SDS011;7733;51.554;13.590;2023-12-28T11:45:58;2.00;;;1.90;;
15261;SDS011;7733;51.554;13.590;2023-12-28T11:48:25;1.87;;;1.77;;
15261;SDS011;7733;51.554;13.590;2023-12-28T11:50:59;1.90;;;1.83;;
15261;SDS011;7733;51.554;13.590;2023-12-28T11:53:26;2.00;;;1.90;;
15261;SDS011;7733;51.554;13.590;2023-12-28T11:55:58;2.03;;;1.93;;
15261;SDS011;7733;51.554;13.590;2023-12-28T11:58:28;1.80;;;1.70;;
15261;SDS011;7733;51.554;13.590;2023-12-28T12:00:54;1.87;;;1.77;;
15261;SDS011;7733;51.554;13.590;2023-12-28T12:03:20;1.83;;;1.73;;
15261;SDS011;7733;51.554;13.590;2023-12-28T12:05:45;1.53;;;1.50;;
15261;SDS011;7733;51.554;13.590;2023-12-28T12:08:11;1.70;;;1.60;;
15261;SDS011;7733;51.554;13.590;2023-12-28T12:10:39;1.90;;;1.80;;
15261;SDS011;7733;51.554;13.590;2023-12-28T12:13:06;2.00;;;1.80;;
15261;SDS011;7733;51.554;13.590;2023-12-28T12:15:33;1.90;;;1.80;;
15261;SDS011;7733;51.554;13.590;2023-12-28T12:17:59;2.27;;;1.90;;
15261;SDS011;7733;51.554;13.590;2023-12-28T12:20:27;1.73;;;1.70;;
15261;SDS011;7733;51.554;13.590;2023-12-28T12:22:57;1.97;;;1.87;;
15261;SDS011;7733;51.554;13.590;2023-12-28T12:25:24;1.73;;;1.73;;
15261;SDS011;7733;51.554;13.590;2023-12-28T12:27:50;1.83;;;1.73;;
15261;SDS011;7733;51.554;13.590;2023-12-28T12:30:15;1.80;;;1.70;;
15261;SDS011;7733;51.554;13.590;2023-12-28T12:32:41;1.80;;;1.70;;
15261;SDS011;7733;51.554;13.590;2023-12-28T12:35:11;1.87;;;1.77;;
15261;SDS011;7733;51.554;13.590;2023-12-28T12:37:39;1.67;;;1.53;;
15261;SDS011;7733;51.554;13.590;2023-12-28T12:40:06;2.23;;;1.80;;
15261;SDS011;7733;51.554;13.590;2023-12-28T12:42:33;1.60;;;1.50;;
15261;SDS011;7733;51.554;13.590;2023-12-28T12:44:59;1.60;;;1.60;;
15261;SDS011;7733;51.554;13.590;2023-12-28T12:47:25;1.67;;;1.57;;
15261;SDS011;7733;51.554;13.590;2023-12-28T12:49:59;1.80;;;1.70;;
15261;SDS011;7733;51.554;13.590;2023-12-28T12:52:25;1.70;;;1.60;;
15261;SDS011;7733;51.554;13.590;2023-12-28T12:54:55;2.00;;;1.90;;
15261;SDS011;7733;51.554;13.590;2023-12-28T12:57:24;1.80;;;1.70;;
15261;SDS011;7733;51.554;13.590;2023-12-28T12:59:51;1.70;;;1.60;;
15261;SDS011;7733;51.554;13.590;2023-12-28T13:02:17;1.60;;;1.60;;
15261;SDS011;7733;51.554;13.590;2023-12-28T13:04:42;1.40;;;1.40;;
15261;SDS011;7733;51.554;13.590;2023-12-28T13:07:09;1.50;;;1.40;;
15261;SDS011;7733;51.554;13.590;2023-12-28T13:09:34;2.00;;;1.70;;
15261;SDS011;7733;51.554;13.590;2023-12-28T13:12:00;1.70;;;1.60;;
15261;SDS011;7733;51.554;13.590;2023-12-28T13:14:28;1.60;;;1.50;;
15261;SDS011;7733;51.554;13.590;2023-12-28T13:16:54;1.67;;;1.50;;
15261;SDS011;7733;51.554;13.590;2023-12-28T13:19:21;1.53;;;1.53;;
15261;SDS011;7733;51.554;13.590;2023-12-28T13:21:46;1.60;;;1.60;;
15261;SDS011;7733;51.554;13.590;2023-12-28T13:24:12;1.50;;;1.40;;
15261;SDS011;7733;51.554;13.590;2023-12-28T13:26:38;1.50;;;1.40;;
15261;SDS011;7733;51.554;13.590;2023-12-28T13:29:03;2.10;;;1.80;;
15261;SDS011;7733;51.554;13.590;2023-12-28T13:31:29;1.60;;;1.50;;
15261;SDS011;7733;51.554;13.590;2023-12-28T13:33:55;1.60;;;1.50;;
15261;SDS011;7733;51.554;13.590;2023-12-28T13:36:21;1.40;;;1.40;;
15261;SDS011;7733;51.554;13.590;2023-12-28T13:38:47;1.77;;;1.60;;
15261;SDS011;7733;51.554;13.590;2023-12-28T13:41:13;1.37;;;1.37;;
15261;SDS011;7733;51.554;13.590;2023-12-28T13:43:38;2.10;;;1.70;;
15261;SDS011;7733;51.554;13.590;2023-12-28T13:46:04;1.50;;;1.50;;
15261;SDS011;7733;51.554;13.590;2023-12-28T13:48:30;1.67;;;1.60;;
15261;SDS011;7733;51.554;13.590;2023-12-28T13:50:56;2.63;;;1.70;;
15261;SDS011;7733;51.554;13.590;2023-12-28T13:53:22;1.40;;;1.30;;
15261;SDS011;7733;51.554;13.590;2023-12-28T13:55:47;1.77;;;1.67;;
15261;SDS011;7733;51.554;13.590;2023-12-28T13:58:13;1.50;;;1.50;;
15261;SDS011;7733;51.554;13.590;2023-12-28T14:00:39;1.70;;;1.40;;
15261;SDS011;7733;51.554;13.590;2023-12-28T14:03:05;1.77;;;1.50;;
15261;SDS011;7733;51.554;13.590;2023-12-28T14:05:31;1.57;;;1.47;;
15261;SDS011;7733;51.554;13.590;2023-12-28T14:07:57;2.00;;;1.80;;
15261;SDS011;7733;51.554;13.590;2023-12-28T14:10:22;2.13;;;2.03;;
15261;SDS011;7733;51.554;13.590;2023-12-28T14:12:48;1.67;;;1.57;;
15261;SDS011;7733;51.554;13.590;2023-12-28T14:15:15;1.73;;;1.63;;
15261;SDS011;7733;51.554;13.590;2023-12-28T14:17:41;2.93;;;2.20;;
15261;SDS011;7733;51.554;13.590;2023-12-28T14:20:07;1.80;;;1.40;;
15261;SDS011;7733;51.554;13.590;2023-12-28T14:22:38;1.50;;;1.40;;
15261;SDS011;7733;51.554;13.590;2023-12-28T14:25:05;1.70;;;1.60;;
15261;SDS011;7733;51.554;13.590;2023-12-28T14:27:31;2.23;;;1.57;;
15261;SDS011;7733;51.554;13.590;2023-12-28T14:29:57;1.53;;;1.53;;
15261;SDS011;7733;51.554;13.590;2023-12-28T14:32:27;1.40;;;1.40;;
15261;SDS011;7733;51.554;13.590;2023-12-28T14:34:53;1.37;;;1.27;;
15261;SDS011;7733;51.554;13.590;2023-12-28T14:37:19;1.50;;;1.40;;
15261;SDS011;7733;51.554;13.590;2023-12-28T14:39:46;2.20;;;1.50;;
15261;SDS011;7733;51.554;13.590;2023-12-28T14:42:11;1.37;;;1.37;;
15261;SDS011;7733;51.554;13.590;2023-12-28T14:44:38;2.07;;;1.97;;
15261;SDS011;7733;51.554;13.590;2023-12-28T14:47:05;1.50;;;1.40;;